Fenton, MI

2:42 PM EDT on April 27, 2015 (GMT -0400)
RAWS | | Change Station
CLOSE
Current Station
Personal Weather Station
Location: Fenton, MI
Elevation: 905 ft
Nearby Weather Stations

Elev 905 ft 42.82 °N, 83.68 °W | Updated 41 minutes ago

Overcast
Overcast
45 °F
Feels Like 40 °F
N
9
Wind Variable Wind from North
Gusts 15.0 mph

Today
High -- | Low -- °F
--% Chance of Precip.
Yesterday
High -- | Low -- °F
Precip. -- in
6:35 AM 8:30 PM
Waxing Gibbous, 67% visible
Pressure 30.06 in
Visibility 10.0 miles
Clouds Scattered Clouds 2600 ft
Overcast 3300 ft
Windchill 40 °F
Dew Point 33 °F
Humidity 62%
Rainfall in
Snow Depth Not available.
UV 3 out of 12
Pollen 10.60 out of 12
Air Quality Not available.
Flu Activity Regional
METAR KFNT 271753Z 02011KT 10SM SCT026 OVC033 09/02 A3005 RMK AO2 SLP180 60000 T00940017 10100 20050 51009

More Conditions Fewer Conditions

Pressure 30.06 in
Visibility 10.0 miles
Clouds Scattered Clouds 2600 ft
Overcast 3300 ft
Windchill 40 °F
Dew Point 33 °F
Humidity 62%
Rainfall in
Snow Depth Not available.
UV 3 out of 12
Pollen 10.60 out of 12
Air Quality Not available.
Flu Activity Regional
METAR KFNT 271753Z 02011KT 10SM SCT026 OVC033 09/02 A3005 RMK AO2 SLP180 60000 T00940017 10100 20050 51009

More Conditions Fewer Conditions

10-Day Weather Forecast

Almanac

Astronomy

Apr. 27, 2015 Rise Set
Actual Time
Civil Twilight
Nautical Twilight
Astronomical Twilight
Moon
Length of Visible Light
Length of Day
Tomorrow will be .
, % of the Moon is Illuminated

Today's Extremes

State Highs State Lows

Community

WunderPhotos

Upload Photos

1,817,398 photos uploaded!

WunderBlogs® & News

Nearby

Air Quality

  Air Quality AQ Index Pollutant
Not available.

Snow Depth

Station Depth Elevation

Earthquake Activity

City Distance Mag. Time & Date
Minimum magnitude displayed is 2.5.

Coastal Water Temperatures

Place Temperature

Stations

Nearby Weather Stations

Station Location Temp. Windchill Dew Point Humidity Wind Precip. Elev Updated Type